createdAt,value
2023-03-18T00:00:21.045Z,15.02
2023-03-18T00:02:48.501Z,12.88
2023-03-18T00:05:15.786Z,16.42
2023-03-18T00:07:42.769Z,14.32
2023-03-18T00:10:11.930Z,15.77
2023-03-18T00:12:42.250Z,15.52
2023-03-18T00:15:12.678Z,13.07
2023-03-18T00:17:41.210Z,16.35
2023-03-18T00:20:09.441Z,16.77
2023-03-18T00:22:37.931Z,16.38
2023-03-18T00:25:07.082Z,15.48
2023-03-18T00:27:35.880Z,15.57
2023-03-18T00:30:05.199Z,17.35
2023-03-18T00:32:32.851Z,14.65
2023-03-18T00:35:01.161Z,16.08
2023-03-18T00:37:30.984Z,16.85
2023-03-18T00:40:04.609Z,16.25
2023-03-18T00:42:39.091Z,15.13
2023-03-18T00:45:08.003Z,15.45
2023-03-18T00:47:35.954Z,14.55
2023-03-18T00:50:03.274Z,16.13
2023-03-18T00:52:32.335Z,16.08
2023-03-18T00:55:00.180Z,17.73
2023-03-18T00:57:28.581Z,16.83
2023-03-18T00:59:57.069Z,15.35
2023-03-18T01:02:24.895Z,15.45
2023-03-18T01:04:52.201Z,13.93
2023-03-18T01:07:19.577Z,16.92
2023-03-18T01:09:46.687Z,16.88
2023-03-18T01:12:13.635Z,13.18
2023-03-18T01:14:41.126Z,13.18
2023-03-18T01:17:09.452Z,13.77
2023-03-18T01:19:36.494Z,15.13
2023-03-18T01:22:04.218Z,14.75
2023-03-18T01:24:31.095Z,13.68
2023-03-18T01:26:58.230Z,16.00
2023-03-18T01:29:25.341Z,18.15
2023-03-18T01:31:52.222Z,15.43
2023-03-18T01:34:19.336Z,12.63
2023-03-18T01:36:46.516Z,13.90
2023-03-18T01:39:13.660Z,14.35
2023-03-18T01:41:40.367Z,14.57
2023-03-18T01:44:19.225Z,12.80
2023-03-18T01:46:50.209Z,13.13
2023-03-18T01:49:27.215Z,16.13
2023-03-18T01:52:03.900Z,13.88
2023-03-18T01:54:33.372Z,16.08
2023-03-18T01:57:00.597Z,11.27
2023-03-18T01:59:29.806Z,16.50
2023-03-18T02:02:02.656Z,14.55
2023-03-18T02:04:34.613Z,13.15
2023-03-18T02:07:01.472Z,13.13
2023-03-18T02:09:28.355Z,12.88
2023-03-18T02:14:23.795Z,15.43
2023-03-18T02:17:06.439Z,15.40
2023-03-18T02:20:00.408Z,12.60
2023-03-18T02:22:34.670Z,16.15
2023-03-18T02:25:07.359Z,13.45
2023-03-18T02:27:39.009Z,13.48
2023-03-18T02:30:20.998Z,16.05
2023-03-18T02:32:50.890Z,13.18
2023-03-18T02:35:17.758Z,14.32
2023-03-18T02:37:44.500Z,15.88
2023-03-18T02:40:22.307Z,13.50
2023-03-18T02:42:49.162Z,17.33
2023-03-18T02:45:31.212Z,13.50
2023-03-18T02:48:02.838Z,14.05
2023-03-18T02:50:30.141Z,12.88
2023-03-18T02:52:57.790Z,12.32
2023-03-18T02:55:24.533Z,12.05
2023-03-18T02:57:51.388Z,12.85
2023-03-18T03:00:18.320Z,16.83
2023-03-18T03:02:45.409Z,14.88
2023-03-18T03:05:13.819Z,13.27
2023-03-18T03:07:41.072Z,14.40
2023-03-18T03:10:09.176Z,14.23
2023-03-18T03:12:37.896Z,14.63
2023-03-18T03:15:07.946Z,16.42
2023-03-18T03:17:35.799Z,13.02
2023-03-18T03:20:06.321Z,14.35
2023-03-18T03:22:34.247Z,14.93
2023-03-18T03:25:01.502Z,14.70
2023-03-18T03:27:29.108Z,14.80
2023-03-18T03:29:55.873Z,14.43
2023-03-18T03:32:23.343Z,13.68
2023-03-18T03:34:50.378Z,14.48
2023-03-18T03:37:18.018Z,18.30
2023-03-18T03:39:45.409Z,13.10
2023-03-18T03:42:12.151Z,13.45
2023-03-18T03:44:38.901Z,11.70
2023-03-18T03:47:06.570Z,15.07
2023-03-18T03:49:33.373Z,12.45
2023-03-18T03:52:00.169Z,13.38
2023-03-18T03:54:27.172Z,13.63
2023-03-18T03:56:54.122Z,11.85
2023-03-18T03:59:21.066Z,11.70
2023-03-18T04:01:47.841Z,12.05
2023-03-18T04:04:15.520Z,11.65
2023-03-18T04:06:42.602Z,11.35
2023-03-18T04:09:09.692Z,13.65
2023-03-18T04:11:36.440Z,11.85
2023-03-18T04:14:03.182Z,15.35
2023-03-18T04:16:29.947Z,11.88
2023-03-18T04:18:56.773Z,12.32
2023-03-18T04:21:23.530Z,14.07
2023-03-18T04:23:50.247Z,12.07
2023-03-18T04:26:17.003Z,11.95
2023-03-18T04:28:43.806Z,13.20
2023-03-18T04:31:10.695Z,11.73
2023-03-18T04:33:37.509Z,17.10
2023-03-18T04:36:04.548Z,11.32
2023-03-18T04:38:31.287Z,13.02
2023-03-18T04:40:58.029Z,9.95
2023-03-18T04:43:24.776Z,10.10
2023-03-18T04:45:51.946Z,11.20
2023-03-18T04:48:18.745Z,11.88
2023-03-18T04:50:46.023Z,12.18
2023-03-18T04:53:12.821Z,10.73
2023-03-18T04:55:40.088Z,11.15
2023-03-18T04:58:06.968Z,10.68
2023-03-18T05:00:33.928Z,12.88
2023-03-18T05:03:01.945Z,9.38
2023-03-18T05:05:28.735Z,12.10
2023-03-18T05:07:55.487Z,15.98
2023-03-18T05:10:22.221Z,10.60
2023-03-18T05:12:48.963Z,10.45
2023-03-18T05:15:15.726Z,10.85
2023-03-18T05:17:42.625Z,12.43
2023-03-18T05:20:10.699Z,9.65
2023-03-18T05:22:37.475Z,11.13
2023-03-18T05:25:04.757Z,8.65
2023-03-18T05:27:31.955Z,11.05
2023-03-18T05:29:58.851Z,15.10
2023-03-18T05:32:26.467Z,10.10
2023-03-18T05:34:53.236Z,9.93
2023-03-18T05:37:20.083Z,8.20
2023-03-18T05:39:46.961Z,8.55
2023-03-18T05:42:14.253Z,8.80
2023-03-18T05:44:42.184Z,9.45
2023-03-18T05:47:10.140Z,11.77
2023-03-18T05:49:37.383Z,10.35
2023-03-18T05:52:04.452Z,10.80
2023-03-18T05:54:31.603Z,9.45
2023-03-18T05:56:58.430Z,8.75
2023-03-18T05:59:25.635Z,9.05
2023-03-18T06:01:53.922Z,8.50
2023-03-18T06:04:20.812Z,8.65
2023-03-18T06:06:48.362Z,7.18
2023-03-18T06:09:15.549Z,8.48
2023-03-18T06:11:45.780Z,8.32
2023-03-18T06:14:13.187Z,11.95
2023-03-18T06:16:41.820Z,10.43
2023-03-18T06:19:10.962Z,7.95
2023-03-18T06:21:39.008Z,9.57
2023-03-18T06:24:06.691Z,10.27
2023-03-18T06:26:33.608Z,11.27
2023-03-18T06:29:00.480Z,13.73
2023-03-18T06:31:27.831Z,20.63
2023-03-18T06:33:54.672Z,19.02
2023-03-18T06:36:21.774Z,22.02
2023-03-18T06:38:48.606Z,18.63
2023-03-18T06:41:16.350Z,13.15
2023-03-18T06:43:43.391Z,11.07
2023-03-18T06:46:10.602Z,11.93
2023-03-18T06:48:40.472Z,9.43
2023-03-18T06:51:08.003Z,8.15
2023-03-18T06:53:36.503Z,8.15
2023-03-18T06:56:06.808Z,7.25
2023-03-18T06:58:33.987Z,6.90
2023-03-18T07:01:01.509Z,8.90
2023-03-18T07:03:28.355Z,6.90
2023-03-18T07:05:56.133Z,7.45
2023-03-18T07:08:23.549Z,7.82
2023-03-18T07:10:54.714Z,7.68
2023-03-18T07:15:49.307Z,9.50
2023-03-18T07:18:16.223Z,7.47
2023-03-18T07:20:43.393Z,5.85
2023-03-18T07:23:10.645Z,5.43
2023-03-18T07:25:37.418Z,5.63
2023-03-18T07:28:05.897Z,5.30
2023-03-18T07:30:33.960Z,5.55
2023-03-18T07:36:47.894Z,6.57
2023-03-18T07:39:14.882Z,4.72
2023-03-18T07:41:41.866Z,6.55
2023-03-18T07:44:08.894Z,6.72
2023-03-18T07:46:35.861Z,5.28
2023-03-18T07:49:02.767Z,5.93
2023-03-18T07:51:29.635Z,5.47
2023-03-18T07:53:56.649Z,3.60
2023-03-18T07:56:24.322Z,5.28
2023-03-18T07:58:51.720Z,3.78
2023-03-18T08:01:19.597Z,4.55
2023-03-18T08:03:47.511Z,7.57
2023-03-18T08:06:15.832Z,4.97
2023-03-18T08:08:43.710Z,4.63
2023-03-18T08:11:11.207Z,6.90
2023-03-18T08:13:39.509Z,3.33
2023-03-18T08:16:07.396Z,4.40
2023-03-18T08:18:34.380Z,3.55
2023-03-18T08:21:01.222Z,3.58
2023-03-18T08:23:28.416Z,5.00
2023-03-18T08:25:55.143Z,5.63
2023-03-18T08:28:21.939Z,5.55
2023-03-18T08:30:48.871Z,3.75
2023-03-18T08:33:16.012Z,3.78
2023-03-18T08:35:42.868Z,4.45
2023-03-18T08:38:10.057Z,6.30
2023-03-18T08:40:36.836Z,5.90
2023-03-18T08:43:03.991Z,5.00
2023-03-18T08:45:30.986Z,6.03
2023-03-18T08:47:58.718Z,5.10
2023-03-18T08:50:28.626Z,3.55
2023-03-18T08:53:00.548Z,5.45
2023-03-18T08:55:35.392Z,4.82
2023-03-18T08:58:04.469Z,3.50
2023-03-18T09:00:31.852Z,4.22
2023-03-18T09:02:58.713Z,3.55
2023-03-18T09:05:25.804Z,6.45
2023-03-18T09:07:53.338Z,2.80
2023-03-18T09:10:20.408Z,4.00
2023-03-18T09:12:47.749Z,4.90
2023-03-18T09:15:16.036Z,2.65
2023-03-18T09:17:56.946Z,3.63
2023-03-18T09:20:29.984Z,2.08
2023-03-18T09:22:57.548Z,2.67
2023-03-18T09:25:24.707Z,5.75
2023-03-18T09:27:52.061Z,6.90
2023-03-18T09:30:19.895Z,3.70
2023-03-18T09:32:46.737Z,3.67
2023-03-18T09:35:14.195Z,2.72
2023-03-18T09:37:41.072Z,3.33
2023-03-18T09:40:10.760Z,4.05
2023-03-18T09:42:59.636Z,4.22
2023-03-18T09:45:35.699Z,5.00
2023-03-18T09:48:41.790Z,6.07
2023-03-18T09:51:20.268Z,5.13
2023-03-18T09:54:06.984Z,7.30
2023-03-18T09:56:36.792Z,4.72
2023-03-18T09:59:12.504Z,4.63
2023-03-18T10:01:41.251Z,5.13
2023-03-18T10:04:34.947Z,5.65
2023-03-18T10:07:07.472Z,5.63
2023-03-18T10:09:45.875Z,5.45
2023-03-18T10:12:12.730Z,6.10
2023-03-18T10:15:00.306Z,5.25
2023-03-18T10:17:57.933Z,4.47
2023-03-18T10:21:04.125Z,5.18
2023-03-18T10:23:41.845Z,6.18
2023-03-18T10:26:42.199Z,5.63
2023-03-18T10:29:21.874Z,8.63
2023-03-18T10:32:08.290Z,3.65
2023-03-18T10:35:05.940Z,3.30
2023-03-18T10:38:00.334Z,5.70
2023-03-18T10:40:28.788Z,6.80
2023-03-18T10:42:56.496Z,5.38
2023-03-18T10:45:28.188Z,5.70
2023-03-18T10:48:01.307Z,6.10
2023-03-18T10:50:48.682Z,7.32
2023-03-18T10:53:31.640Z,6.68
2023-03-18T10:56:12.932Z,4.60
2023-03-18T10:58:41.748Z,4.55
2023-03-18T11:01:13.021Z,5.10
2023-03-18T11:03:50.322Z,4.63
2023-03-18T11:06:25.415Z,7.55
2023-03-18T11:09:09.121Z,4.88
2023-03-18T11:14:17.182Z,4.35
2023-03-18T11:16:50.323Z,6.35
2023-03-18T11:19:41.193Z,7.43
2023-03-18T11:22:11.650Z,6.00
2023-03-18T11:24:42.289Z,5.43
2023-03-18T11:27:15.942Z,4.53
2023-03-18T11:29:54.161Z,8.48
2023-03-18T11:32:25.525Z,7.18
2023-03-18T11:35:00.762Z,4.68
2023-03-18T11:37:35.640Z,6.20
2023-03-18T11:40:14.353Z,19.58
2023-03-18T11:42:42.556Z,5.45
2023-03-18T11:45:23.599Z,4.32
2023-03-18T11:47:50.363Z,4.70
2023-03-18T11:50:21.114Z,5.38
2023-03-18T11:53:03.004Z,6.10
2023-03-18T11:58:03.341Z,6.72
2023-03-18T12:00:59.947Z,5.13
2023-03-18T12:03:41.898Z,5.18
2023-03-18T12:06:30.785Z,7.45
2023-03-18T12:09:32.973Z,6.85
2023-03-18T12:14:46.650Z,7.10
2023-03-18T12:17:35.002Z,6.00
2023-03-18T12:20:12.894Z,6.60
2023-03-18T12:23:01.369Z,5.68
2023-03-18T12:26:06.225Z,7.88
2023-03-18T12:29:11.429Z,5.68
2023-03-18T12:32:00.498Z,5.30
2023-03-18T12:34:56.135Z,5.22
2023-03-18T12:37:43.837Z,6.20
2023-03-18T12:40:48.983Z,4.88
2023-03-18T12:43:34.153Z,4.68
2023-03-18T12:46:14.751Z,4.13
2023-03-18T12:49:04.666Z,7.00
2023-03-18T12:51:46.973Z,4.72
2023-03-18T12:54:46.289Z,5.47
2023-03-18T12:57:23.508Z,6.78
2023-03-18T13:00:33.743Z,5.32
2023-03-18T13:03:28.306Z,4.97
2023-03-18T13:06:22.869Z,5.55
2023-03-18T13:09:00.982Z,4.82
2023-03-18T13:11:44.668Z,3.60
2023-03-18T13:14:17.743Z,3.55
2023-03-18T13:16:45.709Z,6.47
2023-03-18T13:19:12.492Z,5.50
2023-03-18T13:21:59.699Z,6.30
2023-03-18T13:25:00.648Z,4.78
2023-03-18T13:27:34.368Z,3.97
2023-03-18T13:30:30.647Z,5.93
2023-03-18T13:33:32.725Z,4.85
2023-03-18T13:38:35.929Z,3.65
2023-03-18T13:41:17.996Z,3.47
2023-03-18T13:43:49.379Z,4.63
2023-03-18T13:46:27.893Z,6.45
2023-03-18T13:49:02.412Z,3.75
2023-03-18T13:51:29.469Z,3.88
2023-03-18T13:54:02.168Z,6.35
2023-03-18T13:56:32.555Z,4.03
2023-03-18T13:59:07.116Z,4.22
2023-03-18T14:01:36.530Z,5.50
2023-03-18T14:04:34.153Z,3.92
2023-03-18T14:07:12.638Z,7.57
2023-03-18T14:09:52.438Z,4.65
2023-03-18T14:12:22.308Z,5.43
2023-03-18T14:14:52.986Z,7.72
2023-03-18T14:17:38.567Z,5.53
2023-03-18T14:20:17.768Z,4.55
2023-03-18T14:22:52.250Z,6.40
2023-03-18T14:25:20.168Z,4.88
2023-03-18T14:27:48.571Z,4.25
2023-03-18T14:30:30.317Z,4.68
2023-03-18T14:35:45.327Z,5.18
2023-03-18T14:38:25.914Z,4.30
2023-03-18T14:40:55.943Z,4.28
2023-03-18T14:43:51.695Z,5.28
2023-03-18T14:46:26.253Z,4.72
2023-03-18T14:48:56.238Z,5.78
2023-03-18T14:51:24.884Z,6.22
2023-03-18T14:54:04.064Z,4.93
2023-03-18T14:56:51.540Z,5.97
2023-03-18T14:59:18.872Z,4.40
2023-03-18T15:01:51.524Z,5.03
2023-03-18T15:04:24.908Z,3.58
2023-03-18T15:06:54.232Z,6.93
2023-03-18T15:09:30.052Z,4.53
2023-03-18T15:11:57.764Z,5.88
2023-03-18T15:14:30.819Z,5.95
2023-03-18T15:17:01.071Z,4.80
2023-03-18T15:19:28.922Z,8.07
2023-03-18T15:21:58.993Z,5.60
2023-03-18T15:24:26.962Z,4.95
2023-03-18T15:26:57.581Z,5.03
2023-03-18T15:29:33.778Z,6.15
2023-03-18T15:32:28.429Z,3.70
2023-03-18T15:35:16.699Z,6.32
2023-03-18T15:37:45.393Z,7.20
2023-03-18T15:40:45.183Z,4.78
2023-03-18T15:43:11.844Z,5.50
2023-03-18T15:45:45.810Z,3.72
2023-03-18T15:48:21.637Z,5.18
2023-03-18T15:50:54.102Z,3.67
2023-03-18T15:53:26.575Z,7.22
2023-03-18T15:55:56.291Z,5.40
2023-03-18T15:58:34.176Z,5.18
2023-03-18T16:01:01.151Z,5.53
2023-03-18T16:03:32.181Z,4.88
2023-03-18T16:05:59.150Z,11.60
2023-03-18T16:08:26.260Z,5.93
2023-03-18T16:11:00.044Z,5.47
2023-03-18T16:13:29.604Z,4.82
2023-03-18T16:15:56.784Z,5.60
2023-03-18T16:18:23.496Z,6.10
2023-03-18T16:20:51.213Z,8.65
2023-03-18T16:23:18.723Z,6.07
2023-03-18T16:25:51.174Z,7.45
2023-03-18T16:28:18.343Z,5.05
2023-03-18T16:30:45.225Z,5.50
2023-03-18T16:33:17.521Z,4.68
2023-03-18T16:35:45.707Z,6.25
2023-03-18T16:38:17.362Z,5.95
2023-03-18T16:40:46.091Z,6.78
2023-03-18T16:43:32.140Z,7.88
2023-03-18T16:46:02.191Z,8.38
2023-03-18T16:48:29.068Z,6.03
2023-03-18T16:50:57.480Z,9.38
2023-03-18T16:53:28.293Z,8.32
2023-03-18T16:55:58.380Z,6.55
2023-03-18T16:58:36.318Z,6.85
2023-03-18T17:01:06.218Z,7.72
2023-03-18T17:03:34.517Z,10.98
2023-03-18T17:06:02.043Z,10.48
2023-03-18T17:08:28.814Z,11.15
2023-03-18T17:10:59.360Z,7.60
2023-03-18T17:13:33.215Z,8.57
2023-03-18T17:15:59.979Z,5.80
2023-03-18T17:18:27.828Z,6.95
2023-03-18T17:20:54.689Z,6.82
2023-03-18T17:23:26.648Z,6.93
2023-03-18T17:25:57.013Z,7.38
2023-03-18T17:28:45.770Z,5.85
2023-03-18T17:31:13.447Z,9.05
2023-03-18T17:33:40.492Z,6.57
2023-03-18T17:36:07.799Z,7.82
2023-03-18T17:38:35.263Z,7.63
2023-03-18T17:41:13.683Z,11.40
2023-03-18T17:43:40.432Z,10.15
2023-03-18T17:46:07.463Z,7.22
2023-03-18T17:48:36.596Z,7.53
2023-03-18T17:51:16.275Z,8.80
2023-03-18T17:53:48.456Z,9.77
2023-03-18T17:56:17.752Z,14.82
2023-03-18T17:58:47.145Z,15.13
2023-03-18T18:01:24.350Z,22.23
2023-03-18T18:03:51.294Z,21.58
2023-03-18T18:06:21.052Z,20.88
2023-03-18T18:08:48.980Z,20.10
2023-03-18T18:11:20.184Z,16.13
2023-03-18T18:13:48.173Z,14.23
2023-03-18T18:16:15.480Z,14.07
2023-03-18T18:18:48.225Z,12.88
2023-03-18T18:21:19.739Z,16.75
2023-03-18T18:23:47.302Z,11.82
2023-03-18T18:26:20.114Z,10.60
2023-03-18T18:28:49.474Z,12.45
2023-03-18T18:31:18.170Z,14.70
2023-03-18T18:33:46.736Z,11.52
2023-03-18T18:36:14.388Z,10.68
2023-03-18T18:38:41.324Z,11.45
2023-03-18T18:41:08.671Z,9.68
2023-03-18T18:43:36.095Z,10.75
2023-03-18T18:46:03.241Z,10.93
2023-03-18T18:48:31.304Z,8.30
2023-03-18T18:50:59.336Z,14.15
2023-03-18T18:53:29.173Z,11.38
2023-03-18T18:56:02.616Z,14.88
2023-03-18T18:58:31.448Z,11.32
2023-03-18T19:00:59.853Z,12.30
2023-03-18T19:03:31.270Z,11.20
2023-03-18T19:05:59.802Z,11.48
2023-03-18T19:08:31.846Z,13.95
2023-03-18T19:13:29.506Z,10.23
2023-03-18T19:15:59.577Z,11.55
2023-03-18T19:18:32.598Z,10.75
2023-03-18T19:20:59.341Z,11.57
2023-03-18T19:23:29.343Z,11.95
2023-03-18T19:25:57.933Z,13.50
2023-03-18T19:28:47.858Z,11.73
2023-03-18T19:31:19.469Z,11.40
2023-03-18T19:33:53.263Z,11.95
2023-03-18T19:36:31.960Z,11.02
2023-03-18T19:39:01.200Z,9.63
2023-03-18T19:41:29.112Z,10.05
2023-03-18T19:44:05.843Z,10.77
2023-03-18T19:46:40.277Z,9.23
2023-03-18T19:49:27.247Z,18.60
2023-03-18T19:51:54.723Z,17.30
2023-03-18T19:54:28.154Z,17.17
2023-03-18T19:56:57.268Z,16.50
2023-03-18T19:59:25.273Z,33.13
2023-03-18T20:01:52.052Z,39.05
2023-03-18T20:04:19.800Z,29.80
2023-03-18T20:06:52.391Z,22.98
2023-03-18T20:09:19.355Z,18.08
2023-03-18T20:11:46.925Z,14.10
2023-03-18T20:14:31.304Z,12.20
2023-03-18T20:17:02.480Z,12.95
2023-03-18T20:19:29.264Z,9.33
2023-03-18T20:21:56.036Z,13.10
2023-03-18T20:24:29.428Z,14.20
2023-03-18T20:26:56.235Z,13.23
2023-03-18T20:29:25.286Z,14.57
2023-03-18T20:31:52.515Z,15.18
2023-03-18T20:34:19.321Z,13.02
2023-03-18T20:36:46.493Z,13.73
2023-03-18T20:39:22.556Z,13.98
2023-03-18T20:41:49.936Z,11.25
2023-03-18T20:44:16.725Z,10.50
2023-03-18T20:46:43.514Z,13.95
2023-03-18T20:49:10.269Z,15.25
2023-03-18T20:51:40.867Z,11.38
2023-03-18T20:54:19.650Z,15.25
2023-03-18T20:56:47.302Z,14.15
2023-03-18T20:59:14.179Z,13.70
2023-03-18T21:01:41.172Z,12.95
2023-03-18T21:04:12.112Z,13.55
2023-03-18T21:06:40.694Z,18.10
2023-03-18T21:09:10.197Z,15.85
2023-03-18T21:11:37.385Z,14.82
2023-03-18T21:14:04.667Z,13.82
2023-03-18T21:16:32.856Z,12.02
2023-03-18T21:19:00.104Z,14.23
2023-03-18T21:21:33.046Z,12.48
2023-03-18T21:24:00.176Z,16.92
2023-03-18T21:26:27.043Z,13.75
2023-03-18T21:28:53.933Z,12.77
2023-03-18T21:31:33.737Z,9.77
2023-03-18T21:34:01.131Z,10.80
2023-03-18T21:36:28.077Z,12.70
2023-03-18T21:38:54.843Z,14.52
2023-03-18T21:41:25.567Z,10.68
2023-03-18T21:43:52.475Z,9.93
2023-03-18T21:46:22.626Z,16.75
2023-03-18T21:48:49.355Z,17.55
2023-03-18T21:51:38.454Z,14.40
2023-03-18T21:54:06.269Z,9.45
2023-03-18T21:56:33.189Z,14.18
2023-03-18T21:58:59.952Z,10.60
2023-03-18T22:01:32.144Z,15.80
2023-03-18T22:03:59.420Z,14.18
2023-03-18T22:06:26.408Z,10.65
2023-03-18T22:08:53.148Z,14.10
2023-03-18T22:11:22.229Z,19.00
2023-03-18T22:13:49.539Z,16.67
2023-03-18T22:16:17.812Z,18.63
2023-03-18T22:18:46.447Z,14.25
2023-03-18T22:21:25.086Z,19.75
2023-03-18T22:23:52.347Z,20.33
2023-03-18T22:26:20.234Z,17.73
2023-03-18T22:28:47.582Z,19.95
2023-03-18T22:31:22.863Z,17.17
2023-03-18T22:33:50.983Z,13.32
2023-03-18T22:36:19.325Z,19.15
2023-03-18T22:38:46.202Z,15.98
2023-03-18T22:41:33.288Z,19.77
2023-03-18T22:44:00.364Z,16.65
2023-03-18T22:46:28.654Z,13.15
2023-03-18T22:48:55.782Z,16.27
2023-03-18T22:51:26.424Z,23.00
2023-03-18T22:53:54.220Z,14.63
2023-03-18T22:56:22.481Z,18.25
2023-03-18T22:58:49.666Z,13.50
2023-03-18T23:01:19.596Z,16.13
2023-03-18T23:03:47.773Z,14.75
2023-03-18T23:06:20.206Z,12.70
2023-03-18T23:08:47.258Z,16.15
2023-03-18T23:11:14.836Z,14.90
2023-03-18T23:13:50.125Z,12.68
2023-03-18T23:16:20.434Z,11.25
2023-03-18T23:18:47.849Z,11.90
2023-03-18T23:21:23.025Z,12.57
2023-03-18T23:23:51.061Z,9.95
2023-03-18T23:26:17.964Z,11.32
2023-03-18T23:28:45.845Z,10.52
2023-03-18T23:31:14.510Z,13.10
2023-03-18T23:33:41.611Z,14.00
2023-03-18T23:36:08.796Z,11.57
2023-03-18T23:38:37.623Z,10.05
2023-03-18T23:41:04.545Z,12.75
2023-03-18T23:43:31.507Z,13.95
2023-03-18T23:45:59.935Z,11.63
2023-03-18T23:48:26.756Z,10.30
2023-03-18T23:50:53.873Z,11.73
2023-03-18T23:53:20.838Z,11.40
2023-03-18T23:55:49.160Z,8.88
2023-03-18T23:58:16.709Z,14.30
